sensor_id;sensor_type;location;lat;lon;timestamp;pressure;altitude;pressure_sealevel;temperature;humidity
37904;BME280;23738;50.422;18.758;2023-04-22T00:01:03;98407.70;;;6.37;55.67
37904;BME280;23738;50.422;18.758;2023-04-22T00:03:30;98407.62;;;6.33;55.85
37904;BME280;23738;50.422;18.758;2023-04-22T00:05:59;98406.00;;;6.27;55.96
37904;BME280;23738;50.422;18.758;2023-04-22T00:08:26;98406.67;;;6.23;55.88
37904;BME280;23738;50.422;18.758;2023-04-22T00:10:54;98403.58;;;6.16;56.05
37904;BME280;23738;50.422;18.758;2023-04-22T00:13:22;98402.16;;;6.13;56.04
37904;BME280;23738;50.422;18.758;2023-04-22T00:15:49;98398.46;;;6.06;56.09
37904;BME280;23738;50.422;18.758;2023-04-22T00:18:16;98405.04;;;6.03;56.08
37904;BME280;23738;50.422;18.758;2023-04-22T00:20:43;98404.04;;;6.00;56.16
37904;BME280;23738;50.422;18.758;2023-04-22T00:23:12;98408.39;;;5.95;56.37
37904;BME280;23738;50.422;18.758;2023-04-22T00:25:39;98406.98;;;5.91;56.29
37904;BME280;23738;50.422;18.758;2023-04-22T00:28:06;98400.08;;;5.85;56.47
37904;BME280;23738;50.422;18.758;2023-04-22T00:30:34;98404.91;;;5.86;56.13
37904;BME280;23738;50.422;18.758;2023-04-22T00:33:02;98402.38;;;5.87;56.32
37904;BME280;23738;50.422;18.758;2023-04-22T00:35:29;98400.44;;;5.89;56.58
37904;BME280;23738;50.422;18.758;2023-04-22T00:37:57;98400.80;;;5.93;56.80
37904;BME280;23738;50.422;18.758;2023-04-22T00:40:24;98403.68;;;5.96;56.82
37904;BME280;23738;50.422;18.758;2023-04-22T00:42:51;98402.30;;;5.94;56.90
37904;BME280;23738;50.422;18.758;2023-04-22T00:45:19;98396.67;;;5.91;56.89
37904;BME280;23738;50.422;18.758;2023-04-22T00:47:47;98396.08;;;5.88;57.07
37904;BME280;23738;50.422;18.758;2023-04-22T00:50:15;98397.92;;;5.86;57.09
37904;BME280;23738;50.422;18.758;2023-04-22T00:52:42;98394.34;;;5.84;56.97
37904;BME280;23738;50.422;18.758;2023-04-22T00:55:10;98395.84;;;5.79;57.10
37904;BME280;23738;50.422;18.758;2023-04-22T00:57:39;98398.21;;;5.75;57.17
37904;BME280;23738;50.422;18.758;2023-04-22T01:00:08;98397.83;;;5.71;57.07
37904;BME280;23738;50.422;18.758;2023-04-22T01:02:36;98400.27;;;5.68;57.06
37904;BME280;23738;50.422;18.758;2023-04-22T01:05:05;98405.02;;;5.65;57.33
37904;BME280;23738;50.422;18.758;2023-04-22T01:07:35;98402.65;;;5.59;57.16
37904;BME280;23738;50.422;18.758;2023-04-22T01:10:04;98404.61;;;5.55;57.34
37904;BME280;23738;50.422;18.758;2023-04-22T01:12:31;98406.44;;;5.49;57.50
37904;BME280;23738;50.422;18.758;2023-04-22T01:14:59;98403.67;;;5.43;57.58
37904;BME280;23738;50.422;18.758;2023-04-22T01:17:27;98401.60;;;5.36;57.67
37904;BME280;23738;50.422;18.758;2023-04-22T01:19:54;98403.42;;;5.32;57.65
37904;BME280;23738;50.422;18.758;2023-04-22T01:22:22;98404.80;;;5.28;57.46
37904;BME280;23738;50.422;18.758;2023-04-22T01:24:51;98405.09;;;5.25;57.59
37904;BME280;23738;50.422;18.758;2023-04-22T01:27:19;98405.09;;;5.25;57.98
37904;BME280;23738;50.422;18.758;2023-04-22T01:29:47;98403.32;;;5.24;58.12
37904;BME280;23738;50.422;18.758;2023-04-22T01:32:14;98402.73;;;5.21;57.89
37904;BME280;23738;50.422;18.758;2023-04-22T01:34:41;98403.11;;;5.21;58.13
37904;BME280;23738;50.422;18.758;2023-04-22T01:37:08;98402.58;;;5.19;58.09
37904;BME280;23738;50.422;18.758;2023-04-22T01:39:36;98403.23;;;5.17;58.28
37904;BME280;23738;50.422;18.758;2023-04-22T01:42:04;98402.39;;;5.13;58.41
37904;BME280;23738;50.422;18.758;2023-04-22T01:44:31;98403.04;;;5.09;58.37
37904;BME280;23738;50.422;18.758;2023-04-22T01:46:58;98403.59;;;5.05;58.49
37904;BME280;23738;50.422;18.758;2023-04-22T01:49:26;98405.80;;;5.01;58.69
37904;BME280;23738;50.422;18.758;2023-04-22T01:51:53;98406.73;;;4.96;58.68
37904;BME280;23738;50.422;18.758;2023-04-22T01:54:20;98405.59;;;4.92;58.64
37904;BME280;23738;50.422;18.758;2023-04-22T01:56:52;98408.11;;;4.88;58.61
37904;BME280;23738;50.422;18.758;2023-04-22T01:59:20;98405.30;;;4.82;58.80
37904;BME280;23738;50.422;18.758;2023-04-22T02:01:48;98406.66;;;4.76;59.03
37904;BME280;23738;50.422;18.758;2023-04-22T02:04:15;98405.45;;;4.71;58.79
37904;BME280;23738;50.422;18.758;2023-04-22T02:06:42;98408.64;;;4.68;58.58
37904;BME280;23738;50.422;18.758;2023-04-22T02:09:09;98403.53;;;4.66;58.81
37904;BME280;23738;50.422;18.758;2023-04-22T02:11:36;98402.33;;;4.69;58.88
37904;BME280;23738;50.422;18.758;2023-04-22T02:14:03;98403.47;;;4.70;59.14
37904;BME280;23738;50.422;18.758;2023-04-22T02:16:31;98401.16;;;4.73;59.22
37904;BME280;23738;50.422;18.758;2023-04-22T02:18:58;98397.95;;;4.74;59.39
37904;BME280;23738;50.422;18.758;2023-04-22T02:21:28;98401.00;;;4.75;59.41
37904;BME280;23738;50.422;18.758;2023-04-22T02:23:55;98398.84;;;4.74;59.36
37904;BME280;23738;50.422;18.758;2023-04-22T02:26:23;98398.47;;;4.73;59.32
37904;BME280;23738;50.422;18.758;2023-04-22T02:28:51;98395.09;;;4.70;59.53
37904;BME280;23738;50.422;18.758;2023-04-22T02:31:18;98395.74;;;4.67;59.42
37904;BME280;23738;50.422;18.758;2023-04-22T02:33:46;98397.45;;;4.63;59.48
37904;BME280;23738;50.422;18.758;2023-04-22T02:36:13;98393.88;;;4.56;59.60
37904;BME280;23738;50.422;18.758;2023-04-22T02:38:40;98396.93;;;4.49;59.67
37904;BME280;23738;50.422;18.758;2023-04-22T02:41:07;98392.16;;;4.42;59.61
37904;BME280;23738;50.422;18.758;2023-04-22T02:43:35;98395.82;;;4.36;59.58
37904;BME280;23738;50.422;18.758;2023-04-22T02:46:02;98393.50;;;4.30;59.95
37904;BME280;23738;50.422;18.758;2023-04-22T02:48:30;98394.35;;;4.23;59.65
37904;BME280;23738;50.422;18.758;2023-04-22T02:50:57;98394.15;;;4.20;59.64
37904;BME280;23738;50.422;18.758;2023-04-22T02:53:24;98393.44;;;4.20;59.49
37904;BME280;23738;50.422;18.758;2023-04-22T02:55:51;98389.17;;;4.23;59.72
37904;BME280;23738;50.422;18.758;2023-04-22T02:58:21;98389.05;;;4.26;59.99
37904;BME280;23738;50.422;18.758;2023-04-22T03:00:48;98393.30;;;4.28;59.99
37904;BME280;23738;50.422;18.758;2023-04-22T03:03:15;98391.50;;;4.27;60.01
37904;BME280;23738;50.422;18.758;2023-04-22T03:05:43;98392.63;;;4.25;60.09
37904;BME280;23738;50.422;18.758;2023-04-22T03:08:10;98386.35;;;4.23;60.10
37904;BME280;23738;50.422;18.758;2023-04-22T03:10:37;98395.10;;;4.21;60.16
37904;BME280;23738;50.422;18.758;2023-04-22T03:13:04;98393.27;;;4.19;60.36
37904;BME280;23738;50.422;18.758;2023-04-22T03:15:32;98394.58;;;4.13;60.54
37904;BME280;23738;50.422;18.758;2023-04-22T03:17:59;98391.75;;;4.07;60.43
37904;BME280;23738;50.422;18.758;2023-04-22T03:20:26;98397.85;;;4.07;60.42
37904;BME280;23738;50.422;18.758;2023-04-22T03:22:53;98395.77;;;4.05;60.48
37904;BME280;23738;50.422;18.758;2023-04-22T03:25:21;98396.76;;;4.01;60.44
37904;BME280;23738;50.422;18.758;2023-04-22T03:27:48;98398.11;;;3.98;60.29
37904;BME280;23738;50.422;18.758;2023-04-22T03:30:15;98397.52;;;3.97;60.30
37904;BME280;23738;50.422;18.758;2023-04-22T03:32:42;98401.08;;;4.01;60.52
37904;BME280;23738;50.422;18.758;2023-04-22T03:35:10;98400.80;;;4.04;60.65
37904;BME280;23738;50.422;18.758;2023-04-22T03:37:38;98397.80;;;4.06;60.50
37904;BME280;23738;50.422;18.758;2023-04-22T03:40:08;98400.51;;;4.05;60.56
37904;BME280;23738;50.422;18.758;2023-04-22T03:42:36;98396.60;;;4.01;60.65
37904;BME280;23738;50.422;18.758;2023-04-22T03:45:05;98401.27;;;3.98;60.52
37904;BME280;23738;50.422;18.758;2023-04-22T03:47:32;98399.63;;;3.90;60.67
37904;BME280;23738;50.422;18.758;2023-04-22T03:49:59;98403.45;;;3.89;60.71
37904;BME280;23738;50.422;18.758;2023-04-22T03:52:27;98400.56;;;3.85;60.87
37904;BME280;23738;50.422;18.758;2023-04-22T03:54:54;98408.38;;;3.83;60.94
37904;BME280;23738;50.422;18.758;2023-04-22T03:57:21;98410.28;;;3.80;61.05
37904;BME280;23738;50.422;18.758;2023-04-22T03:59:48;98412.30;;;3.79;61.08
37904;BME280;23738;50.422;18.758;2023-04-22T04:02:15;98415.36;;;3.76;60.99
37904;BME280;23738;50.422;18.758;2023-04-22T04:04:43;98418.23;;;3.72;60.67
37904;BME280;23738;50.422;18.758;2023-04-22T04:07:10;98417.98;;;3.73;60.93
37904;BME280;23738;50.422;18.758;2023-04-22T04:09:37;98418.01;;;3.76;61.06
37904;BME280;23738;50.422;18.758;2023-04-22T04:12:05;98415.96;;;3.80;61.19
37904;BME280;23738;50.422;18.758;2023-04-22T04:14:32;98414.24;;;3.84;61.11
37904;BME280;23738;50.422;18.758;2023-04-22T04:17:00;98418.09;;;3.89;61.27
37904;BME280;23738;50.422;18.758;2023-04-22T04:19:27;98412.47;;;3.89;61.36
37904;BME280;23738;50.422;18.758;2023-04-22T04:21:54;98412.63;;;3.94;61.33
37904;BME280;23738;50.422;18.758;2023-04-22T04:24:22;98409.31;;;3.99;61.44
37904;BME280;23738;50.422;18.758;2023-04-22T04:26:49;98410.15;;;4.04;61.45
37904;BME280;23738;50.422;18.758;2023-04-22T04:29:17;98405.34;;;4.07;61.63
37904;BME280;23738;50.422;18.758;2023-04-22T04:31:47;98407.80;;;4.10;61.69
37904;BME280;23738;50.422;18.758;2023-04-22T04:34:14;98409.95;;;4.14;61.67
37904;BME280;23738;50.422;18.758;2023-04-22T04:36:41;98412.05;;;4.19;61.71
37904;BME280;23738;50.422;18.758;2023-04-22T04:39:08;98408.55;;;4.22;61.82
37904;BME280;23738;50.422;18.758;2023-04-22T04:41:36;98416.19;;;4.33;61.74
37904;BME280;23738;50.422;18.758;2023-04-22T04:44:04;98412.23;;;4.43;61.91
37904;BME280;23738;50.422;18.758;2023-04-22T04:46:32;98413.90;;;4.55;61.86
37904;BME280;23738;50.422;18.758;2023-04-22T04:49:00;98416.58;;;4.67;61.86
37904;BME280;23738;50.422;18.758;2023-04-22T04:51:27;98417.78;;;4.76;62.06
37904;BME280;23738;50.422;18.758;2023-04-22T04:53:54;98420.21;;;4.89;62.23
37904;BME280;23738;50.422;18.758;2023-04-22T04:56:21;98417.21;;;5.04;62.48
37904;BME280;23738;50.422;18.758;2023-04-22T04:58:49;98415.05;;;5.15;62.61
37904;BME280;23738;50.422;18.758;2023-04-22T05:01:16;98415.76;;;5.23;62.91
37904;BME280;23738;50.422;18.758;2023-04-22T05:03:43;98419.45;;;5.35;62.84
37904;BME280;23738;50.422;18.758;2023-04-22T05:06:10;98421.42;;;5.51;63.30
37904;BME280;23738;50.422;18.758;2023-04-22T05:08:38;98422.27;;;5.68;63.42
37904;BME280;23738;50.422;18.758;2023-04-22T05:11:05;98418.59;;;5.87;63.25
37904;BME280;23738;50.422;18.758;2023-04-22T05:13:33;98417.79;;;6.08;63.37
37904;BME280;23738;50.422;18.758;2023-04-22T05:16:00;98413.83;;;6.32;63.53
37904;BME280;23738;50.422;18.758;2023-04-22T05:18:27;98408.36;;;6.57;63.66
37904;BME280;23738;50.422;18.758;2023-04-22T05:20:54;98408.93;;;6.80;63.93
37904;BME280;23738;50.422;18.758;2023-04-22T05:23:24;98407.75;;;7.02;64.25
37904;BME280;23738;50.422;18.758;2023-04-22T05:25:52;98409.23;;;7.24;64.15
37904;BME280;23738;50.422;18.758;2023-04-22T05:28:19;98408.36;;;7.44;64.10
37904;BME280;23738;50.422;18.758;2023-04-22T05:30:46;98408.48;;;7.63;64.20
37904;BME280;23738;50.422;18.758;2023-04-22T05:33:13;98405.89;;;7.84;64.43
37904;BME280;23738;50.422;18.758;2023-04-22T05:35:40;98401.56;;;8.00;64.36
37904;BME280;23738;50.422;18.758;2023-04-22T05:38:08;98405.04;;;8.19;64.37
37904;BME280;23738;50.422;18.758;2023-04-22T05:40:36;98407.96;;;8.43;63.91
37904;BME280;23738;50.422;18.758;2023-04-22T05:43:03;98407.25;;;8.67;63.93
37904;BME280;23738;50.422;18.758;2023-04-22T05:45:30;98403.72;;;8.93;64.00
37904;BME280;23738;50.422;18.758;2023-04-22T05:47:58;98405.52;;;9.21;64.08
37904;BME280;23738;50.422;18.758;2023-04-22T05:50:25;98402.11;;;9.49;63.88
37904;BME280;23738;50.422;18.758;2023-04-22T05:52:52;98408.12;;;9.74;63.65
37904;BME280;23738;50.422;18.758;2023-04-22T05:55:20;98403.41;;;9.98;63.21
37904;BME280;23738;50.422;18.758;2023-04-22T05:57:47;98405.92;;;10.22;63.23
37904;BME280;23738;50.422;18.758;2023-04-22T06:00:17;98407.29;;;10.48;63.39
37904;BME280;23738;50.422;18.758;2023-04-22T06:02:44;98403.15;;;10.74;63.02
37904;BME280;23738;50.422;18.758;2023-04-22T06:05:11;98403.75;;;11.00;62.94
37904;BME280;23738;50.422;18.758;2023-04-22T06:07:39;98403.64;;;11.24;62.83
37904;BME280;23738;50.422;18.758;2023-04-22T06:10:09;98409.44;;;11.47;62.40
37904;BME280;23738;50.422;18.758;2023-04-22T06:12:36;98409.63;;;11.69;62.40
37904;BME280;23738;50.422;18.758;2023-04-22T06:15:06;98411.13;;;11.93;62.13
37904;BME280;23738;50.422;18.758;2023-04-22T06:17:33;98407.97;;;12.14;61.54
37904;BME280;23738;50.422;18.758;2023-04-22T06:20:00;98408.21;;;12.36;61.33
37904;BME280;23738;50.422;18.758;2023-04-22T06:22:28;98408.30;;;12.57;60.91
37904;BME280;23738;50.422;18.758;2023-04-22T06:24:55;98397.29;;;12.74;60.54
37904;BME280;23738;50.422;18.758;2023-04-22T06:27:22;98403.81;;;13.00;60.72
37904;BME280;23738;50.422;18.758;2023-04-22T06:29:49;98398.93;;;13.22;60.37
37904;BME280;23738;50.422;18.758;2023-04-22T06:32:16;98401.77;;;13.44;59.61
37904;BME280;23738;50.422;18.758;2023-04-22T06:34:44;98401.48;;;13.63;59.37
37904;BME280;23738;50.422;18.758;2023-04-22T06:37:11;98403.29;;;13.82;59.21
37904;BME280;23738;50.422;18.758;2023-04-22T06:39:38;98409.52;;;14.06;59.22
37904;BME280;23738;50.422;18.758;2023-04-22T06:42:07;98408.59;;;14.29;58.82
37904;BME280;23738;50.422;18.758;2023-04-22T06:44:34;98405.17;;;14.50;58.66
37904;BME280;23738;50.422;18.758;2023-04-22T06:47:01;98400.32;;;14.70;58.15
37904;BME280;23738;50.422;18.758;2023-04-22T06:49:29;98402.04;;;14.90;58.02
37904;BME280;23738;50.422;18.758;2023-04-22T06:51:56;98401.94;;;15.11;57.72
37904;BME280;23738;50.422;18.758;2023-04-22T06:54:23;98401.42;;;15.33;57.47
37904;BME280;23738;50.422;18.758;2023-04-22T06:56:50;98397.63;;;15.54;57.39
37904;BME280;23738;50.422;18.758;2023-04-22T06:59:17;98399.65;;;15.79;57.21
37904;BME280;23738;50.422;18.758;2023-04-22T07:01:45;98399.46;;;16.02;57.02
37904;BME280;23738;50.422;18.758;2023-04-22T07:04:12;98399.17;;;16.21;56.26
37904;BME280;23738;50.422;18.758;2023-04-22T07:06:39;98396.80;;;16.40;55.76
37904;BME280;23738;50.422;18.758;2023-04-22T07:09:07;98402.95;;;16.62;55.73
37904;BME280;23738;50.422;18.758;2023-04-22T07:11:34;98404.26;;;16.81;55.24
37904;BME280;23738;50.422;18.758;2023-04-22T07:14:01;98399.77;;;16.99;54.70
37904;BME280;23738;50.422;18.758;2023-04-22T07:16:29;98404.45;;;17.15;54.69
37904;BME280;23738;50.422;18.758;2023-04-22T07:18:56;98408.08;;;17.33;54.62
37904;BME280;23738;50.422;18.758;2023-04-22T07:21:24;98402.55;;;17.54;54.43
37904;BME280;23738;50.422;18.758;2023-04-22T07:23:52;98403.55;;;17.76;53.19
37904;BME280;23738;50.422;18.758;2023-04-22T07:26:19;98405.77;;;17.97;53.44
37904;BME280;23738;50.422;18.758;2023-04-22T07:28:46;98406.15;;;18.11;52.65
37904;BME280;23738;50.422;18.758;2023-04-22T07:31:14;98410.10;;;18.20;51.96
37904;BME280;23738;50.422;18.758;2023-04-22T07:33:41;98413.23;;;18.28;51.15
37904;BME280;23738;50.422;18.758;2023-04-22T07:36:08;98402.48;;;18.38;51.46
37904;BME280;23738;50.422;18.758;2023-04-22T07:38:35;98404.48;;;18.56;51.24
37904;BME280;23738;50.422;18.758;2023-04-22T07:41:03;98403.66;;;18.76;51.17
37904;BME280;23738;50.422;18.758;2023-04-22T07:43:31;98405.73;;;18.94;50.88
37904;BME280;23738;50.422;18.758;2023-04-22T07:45:58;98401.21;;;19.13;50.49
37904;BME280;23738;50.422;18.758;2023-04-22T07:48:25;98401.33;;;19.32;50.78
37904;BME280;23738;50.422;18.758;2023-04-22T07:50:53;98402.06;;;19.52;49.29
37904;BME280;23738;50.422;18.758;2023-04-22T07:53:20;98405.08;;;19.62;48.06
37904;BME280;23738;50.422;18.758;2023-04-22T07:55:47;98401.54;;;19.64;49.13
37904;BME280;23738;50.422;18.758;2023-04-22T07:58:15;98405.83;;;19.79;48.94
37904;BME280;23738;50.422;18.758;2023-04-22T08:00:42;98402.95;;;19.92;48.86
37904;BME280;23738;50.422;18.758;2023-04-22T08:03:09;98401.75;;;20.01;47.57
37904;BME280;23738;50.422;18.758;2023-04-22T08:05:37;98403.91;;;20.08;48.01
37904;BME280;23738;50.422;18.758;2023-04-22T08:08:04;98405.26;;;20.24;47.20
37904;BME280;23738;50.422;18.758;2023-04-22T08:10:32;98402.68;;;20.29;46.42
37904;BME280;23738;50.422;18.758;2023-04-22T08:13:00;98405.14;;;20.42;46.66
37904;BME280;23738;50.422;18.758;2023-04-22T08:15:27;98402.92;;;20.59;46.63
37904;BME280;23738;50.422;18.758;2023-04-22T08:17:54;98399.55;;;20.75;46.11
37904;BME280;23738;50.422;18.758;2023-04-22T08:20:22;98404.33;;;20.90;46.12
37904;BME280;23738;50.422;18.758;2023-04-22T08:22:49;98398.14;;;21.05;46.30
37904;BME280;23738;50.422;18.758;2023-04-22T08:25:22;98397.08;;;21.24;45.91
37904;BME280;23738;50.422;18.758;2023-04-22T08:27:50;98403.54;;;21.40;45.23
37904;BME280;23738;50.422;18.758;2023-04-22T08:30:17;98404.14;;;21.58;45.07
37904;BME280;23738;50.422;18.758;2023-04-22T08:32:45;98400.82;;;21.71;44.54
37904;BME280;23738;50.422;18.758;2023-04-22T08:35:13;98403.13;;;21.83;44.05
37904;BME280;23738;50.422;18.758;2023-04-22T08:37:40;98397.40;;;21.96;44.33
37904;BME280;23738;50.422;18.758;2023-04-22T08:40:09;98394.82;;;22.09;44.21
37904;BME280;23738;50.422;18.758;2023-04-22T08:42:38;98397.71;;;22.22;43.71
37904;BME280;23738;50.422;18.758;2023-04-22T08:45:07;98395.60;;;22.32;43.51
37904;BME280;23738;50.422;18.758;2023-04-22T08:47:36;98398.95;;;22.40;43.37
37904;BME280;23738;50.422;18.758;2023-04-22T08:50:08;98394.08;;;22.44;42.32
37904;BME280;23738;50.422;18.758;2023-04-22T08:52:35;98397.30;;;22.54;42.62
37904;BME280;23738;50.422;18.758;2023-04-22T08:55:04;98395.80;;;22.65;42.51
37904;BME280;23738;50.422;18.758;2023-04-22T08:57:32;98392.48;;;22.73;41.59
37904;BME280;23738;50.422;18.758;2023-04-22T09:00:00;98392.64;;;22.73;41.67
37904;BME280;23738;50.422;18.758;2023-04-22T09:02:31;98390.86;;;22.83;41.64
37904;BME280;23738;50.422;18.758;2023-04-22T09:05:01;98386.56;;;23.00;41.91
37904;BME280;23738;50.422;18.758;2023-04-22T09:07:30;98390.23;;;23.16;41.82
37904;BME280;23738;50.422;18.758;2023-04-22T09:12:42;98380.48;;;23.49;41.96
37904;BME280;23738;50.422;18.758;2023-04-22T09:15:13;98381.16;;;23.56;41.22
37904;BME280;23738;50.422;18.758;2023-04-22T09:17:43;98378.48;;;23.61;41.03
37904;BME280;23738;50.422;18.758;2023-04-22T09:20:13;98377.31;;;23.72;40.69
37904;BME280;23738;50.422;18.758;2023-04-22T09:22:46;98375.98;;;23.79;40.52
37904;BME280;23738;50.422;18.758;2023-04-22T09:25:17;98375.61;;;23.87;40.52
37904;BME280;23738;50.422;18.758;2023-04-22T09:27:51;98376.06;;;23.94;40.35
37904;BME280;23738;50.422;18.758;2023-04-22T09:30:27;98379.30;;;24.06;40.52
37904;BME280;23738;50.422;18.758;2023-04-22T09:32:57;98378.39;;;24.14;39.50
37904;BME280;23738;50.422;18.758;2023-04-22T09:35:32;98379.28;;;24.11;38.64
37904;BME280;23738;50.422;18.758;2023-04-22T09:38:03;98378.70;;;24.11;38.81
37904;BME280;23738;50.422;18.758;2023-04-22T09:40:33;98374.27;;;24.16;38.99
37904;BME280;23738;50.422;18.758;2023-04-22T09:43:05;98367.89;;;24.30;38.87
37904;BME280;23738;50.422;18.758;2023-04-22T09:45:36;98367.19;;;24.48;38.16
37904;BME280;23738;50.422;18.758;2023-04-22T09:48:09;98363.01;;;24.59;37.70
37904;BME280;23738;50.422;18.758;2023-04-22T09:50:42;98361.38;;;24.66;37.80
37904;BME280;23738;50.422;18.758;2023-04-22T09:53:13;98358.88;;;24.71;37.20
37904;BME280;23738;50.422;18.758;2023-04-22T09:55:44;98354.88;;;24.67;36.93
37904;BME280;23738;50.422;18.758;2023-04-22T09:58:15;98351.41;;;24.69;37.08
37904;BME280;23738;50.422;18.758;2023-04-22T10:00:46;98346.59;;;24.74;36.01
37904;BME280;23738;50.422;18.758;2023-04-22T10:03:16;98349.20;;;24.77;36.25
37904;BME280;23738;50.422;18.758;2023-04-22T10:05:46;98344.18;;;24.81;36.41
37904;BME280;23738;50.422;18.758;2023-04-22T10:08:16;98339.46;;;24.88;36.27
37904;BME280;23738;50.422;18.758;2023-04-22T10:10:46;98341.94;;;24.90;35.38
37904;BME280;23738;50.422;18.758;2023-04-22T10:13:15;98343.59;;;24.81;34.99
37904;BME280;23738;50.422;18.758;2023-04-22T10:15:49;98339.48;;;24.81;35.29
37904;BME280;23738;50.422;18.758;2023-04-22T10:18:22;98338.99;;;24.87;34.74
37904;BME280;23738;50.422;18.758;2023-04-22T10:20:53;98336.18;;;24.74;34.99
37904;BME280;23738;50.422;18.758;2023-04-22T10:23:24;98334.92;;;24.75;34.53
37904;BME280;23738;50.422;18.758;2023-04-22T10:25:55;98333.36;;;24.71;34.14
37904;BME280;23738;50.422;18.758;2023-04-22T10:28:26;98325.84;;;24.69;34.17
37904;BME280;23738;50.422;18.758;2023-04-22T10:30:57;98331.58;;;24.75;33.23
37904;BME280;23738;50.422;18.758;2023-04-22T10:33:39;98327.36;;;24.75;33.29
37904;BME280;23738;50.422;18.758;2023-04-22T10:36:18;98324.79;;;24.76;33.66
37904;BME280;23738;50.422;18.758;2023-04-22T10:39:15;98319.49;;;24.77;33.55
37904;BME280;23738;50.422;18.758;2023-04-22T10:41:51;98319.39;;;24.84;34.33
37904;BME280;23738;50.422;18.758;2023-04-22T10:44:21;98318.98;;;24.97;34.00
37904;BME280;23738;50.422;18.758;2023-04-22T10:47:00;98314.28;;;25.05;33.86
37904;BME280;23738;50.422;18.758;2023-04-22T10:49:33;98311.80;;;25.16;32.61
37904;BME280;23738;50.422;18.758;2023-04-22T10:52:04;98312.21;;;25.10;33.25
37904;BME280;23738;50.422;18.758;2023-04-22T10:54:59;98310.36;;;25.20;33.64
37904;BME280;23738;50.422;18.758;2023-04-22T10:57:34;98313.29;;;25.34;33.69
37904;BME280;23738;50.422;18.758;2023-04-22T11:00:24;98312.73;;;25.39;33.29
37904;BME280;23738;50.422;18.758;2023-04-22T11:03:05;98309.95;;;25.41;33.27
37904;BME280;23738;50.422;18.758;2023-04-22T11:05:36;98305.61;;;25.48;33.15
37904;BME280;23738;50.422;18.758;2023-04-22T11:08:07;98301.52;;;25.57;32.45
37904;BME280;23738;50.422;18.758;2023-04-22T11:10:44;98301.00;;;25.57;32.28
37904;BME280;23738;50.422;18.758;2023-04-22T11:13:15;98296.86;;;25.49;32.76
37904;BME280;23738;50.422;18.758;2023-04-22T11:15:46;98301.39;;;25.47;32.49
37904;BME280;23738;50.422;18.758;2023-04-22T11:18:18;98296.55;;;25.52;32.68
37904;BME280;23738;50.422;18.758;2023-04-22T11:20:48;98290.19;;;25.67;33.46
37904;BME280;23738;50.422;18.758;2023-04-22T11:23:23;98283.15;;;25.80;33.68
37904;BME280;23738;50.422;18.758;2023-04-22T11:25:59;98276.89;;;25.96;33.89
37904;BME280;23738;50.422;18.758;2023-04-22T11:28:28;98282.86;;;26.10;34.31
37904;BME280;23738;50.422;18.758;2023-04-22T11:31:06;98281.46;;;26.23;34.19
37904;BME280;23738;50.422;18.758;2023-04-22T13:49:38;98180.18;;;25.56;28.53
37904;BME280;23738;50.422;18.758;2023-04-22T13:52:05;98180.92;;;25.44;28.51
37904;BME280;23738;50.422;18.758;2023-04-22T13:54:33;98176.86;;;25.35;28.20
37904;BME280;23738;50.422;18.758;2023-04-22T13:57:00;98175.30;;;25.25;28.78
37904;BME280;23738;50.422;18.758;2023-04-22T13:59:29;98175.91;;;25.18;28.85
37904;BME280;23738;50.422;18.758;2023-04-22T14:01:56;98171.46;;;25.13;29.12
37904;BME280;23738;50.422;18.758;2023-04-22T14:04:23;98175.64;;;25.13;29.63
37904;BME280;23738;50.422;18.758;2023-04-22T14:06:51;98174.42;;;25.10;29.40
37904;BME280;23738;50.422;18.758;2023-04-22T14:09:18;98173.38;;;25.02;29.22
37904;BME280;23738;50.422;18.758;2023-04-22T14:11:45;98172.58;;;24.99;29.32
37904;BME280;23738;50.422;18.758;2023-04-22T14:14:12;98170.34;;;25.00;29.89
37904;BME280;23738;50.422;18.758;2023-04-22T14:16:39;98164.73;;;25.03;29.90
37904;BME280;23738;50.422;18.758;2023-04-22T14:19:07;98164.05;;;24.98;29.23
37904;BME280;23738;50.422;18.758;2023-04-22T14:21:34;98164.86;;;24.91;29.60
37904;BME280;23738;50.422;18.758;2023-04-22T14:24:01;98165.21;;;24.86;28.79
37904;BME280;23738;50.422;18.758;2023-04-22T14:26:29;98159.58;;;24.78;29.04
37904;BME280;23738;50.422;18.758;2023-04-22T14:28:58;98157.48;;;24.78;30.40
37904;BME280;23738;50.422;18.758;2023-04-22T14:31:25;98160.42;;;24.84;30.60
37904;BME280;23738;50.422;18.758;2023-04-22T14:33:52;98158.48;;;24.76;29.52
37904;BME280;23738;50.422;18.758;2023-04-22T14:36:19;98160.91;;;24.59;29.28
37904;BME280;23738;50.422;18.758;2023-04-22T14:38:47;98153.94;;;24.46;28.79
37904;BME280;23738;50.422;18.758;2023-04-22T14:41:14;98151.31;;;24.27;29.21
37904;BME280;23738;50.422;18.758;2023-04-22T14:43:41;98156.11;;;24.24;29.64
37904;BME280;23738;50.422;18.758;2023-04-22T14:46:08;98151.86;;;24.27;30.29
37904;BME280;23738;50.422;18.758;2023-04-22T14:48:36;98153.37;;;24.26;29.26
37904;BME280;23738;50.422;18.758;2023-04-22T14:51:05;98151.48;;;24.19;29.66
37904;BME280;23738;50.422;18.758;2023-04-22T14:53:33;98148.27;;;24.18;30.45
37904;BME280;23738;50.422;18.758;2023-04-22T14:56:00;98150.56;;;24.16;29.53
37904;BME280;23738;50.422;18.758;2023-04-22T14:58:27;98151.84;;;24.01;28.16
37904;BME280;23738;50.422;18.758;2023-04-22T15:00:57;98152.77;;;23.81;28.65
37904;BME280;23738;50.422;18.758;2023-04-22T15:03:24;98148.05;;;23.72;28.77
37904;BME280;23738;50.422;18.758;2023-04-22T15:05:51;98144.29;;;23.68;29.42
37904;BME280;23738;50.422;18.758;2023-04-22T15:08:19;98141.11;;;23.71;29.91
37904;BME280;23738;50.422;18.758;2023-04-22T15:10:46;98139.50;;;23.74;30.07
37904;BME280;23738;50.422;18.758;2023-04-22T15:13:13;98137.95;;;23.70;30.37
37904;BME280;23738;50.422;18.758;2023-04-22T15:15:40;98144.63;;;23.71;30.24
37904;BME280;23738;50.422;18.758;2023-04-22T15:18:08;98142.94;;;23.68;29.68
37904;BME280;23738;50.422;18.758;2023-04-22T15:20:36;98141.98;;;23.61;30.07